Time;durP1;ratioP1;P1;durP2;ratioP2;P2;SDS_P1;SDS_P2;PMS_P1;PMS_P2;Temp;Humidity;BMP_temperature;BMP_pressure;BME280_temperature;BME280_humidity;BME280_pressure;Samples;Min_cycle;Max_cycle;Signal;HPM_P1;HPM_P2
2024/03/09 00:00:19;;;;;;;44.58;24.70;;;;;;;4.25;100.00;99204.59;5040793;28;20371;-74
2024/03/09 00:02:49;;;;;;;43.47;30.92;;;;;;;4.24;100.00;99201.13;5041034;28;20455;-74
2024/03/09 00:05:15;;;;;;;48.45;28.35;;;;;;;4.18;100.00;99210.63;5073994;28;20028;-74
2024/03/09 00:07:41;;;;;;;34.67;22.60;;;;;;;4.14;100.00;99206.63;5040968;28;20028;-74
2024/03/09 00:10:08;;;;;;;42.05;27.27;;;;;;;4.21;100.00;99212.09;5040588;28;20036;-74
2024/03/09 00:12:34;;;;;;;47.58;29.75;;;;;;;4.21;100.00;99204.13;5040722;28;20059;-74
2024/03/09 00:15:03;;;;;;;43.88;28.52;;;;;;;4.25;100.00;99201.94;5040725;28;20029;-73
2024/03/09 00:17:29;;;;;;;38.60;22.27;;;;;;;4.22;100.00;99205.78;5041116;28;20029;-74
2024/03/09 00:19:58;;;;;;;50.45;34.65;;;;;;;4.21;100.00;99206.78;5040395;28;20163;-74
2024/03/09 00:22:25;;;;;;;52.03;33.28;;;;;;;4.23;100.00;99201.28;5040962;28;20036;-74
2024/03/09 00:24:52;;;;;;;51.95;26.88;;;;;;;4.24;100.00;99198.47;5040389;28;20071;-74
2024/03/09 00:27:23;;;;;;;44.67;27.23;;;;;;;4.15;100.00;99196.81;5073798;28;20039;-74
2024/03/09 00:29:48;;;;;;;43.78;26.25;;;;;;;4.11;100.00;99206.16;5041187;28;20024;-73
2024/03/09 00:32:14;;;;;;;41.55;25.40;;;;;;;4.11;100.00;99204.31;5040356;28;20038;-74
2024/03/09 00:34:40;;;;;;;39.97;22.67;;;;;;;4.11;100.00;99190.19;5056846;28;20047;-74
2024/03/09 00:37:07;;;;;;;45.25;30.75;;;;;;;4.08;100.00;99193.22;5040372;28;20020;-74
2024/03/09 00:39:37;;;;;;;46.95;26.65;;;;;;;4.06;100.00;99206.66;5056672;28;20025;-74
2024/03/09 00:42:05;;;;;;;34.95;19.30;;;;;;;3.96;100.00;99201.53;5073401;28;20025;-74
2024/03/09 00:44:30;;;;;;;36.30;21.15;;;;;;;3.94;100.00;99198.25;5056617;28;20111;-74
2024/03/09 00:46:56;;;;;;;46.38;27.02;;;;;;;3.94;100.00;99206.22;5073248;28;20412;-74
2024/03/09 00:49:22;;;;;;;40.08;24.48;;;;;;;3.87;100.00;99197.25;5040128;28;20040;-74
2024/03/09 00:51:47;;;;;;;31.30;19.75;;;;;;;3.84;100.00;99196.78;5040111;28;20055;-73
2024/03/09 00:54:13;;;;;;;34.65;18.85;;;;;;;3.79;100.00;99191.16;5040020;28;20029;-74
2024/03/09 00:56:39;;;;;;;40.45;25.95;;;;;;;3.79;100.00;99199.13;5056593;28;20128;-74
2024/03/09 00:59:05;;;;;;;47.63;29.55;;;;;;;3.84;100.00;99197.59;5040215;28;20367;-73
2024/03/09 01:01:30;;;;;;;38.35;19.67;;;;;;;3.74;100.00;99186.34;5040067;28;20040;-74
2024/03/09 01:03:57;;;;;;;45.22;26.10;;;;;;;3.70;100.00;99195.63;5039925;28;20406;-73
2024/03/09 01:06:23;;;;;;;43.78;23.40;;;;;;;3.64;100.00;99196.31;5039993;28;20032;-73
2024/03/09 01:08:49;;;;;;;36.88;22.23;;;;;;;3.64;100.00;99201.63;5039843;28;20039;-73
2024/03/09 01:11:17;;;;;;;37.58;19.23;;;;;;;3.65;100.00;99203.28;5039845;28;20085;-74
2024/03/09 01:13:44;;;;;;;46.25;30.65;;;;;;;3.59;100.00;99193.34;5072818;28;20046;-74
2024/03/09 01:16:11;;;;;;;42.83;26.55;;;;;;;3.63;100.00;99194.69;5055705;28;20028;-74
2024/03/09 01:18:37;;;;;;;44.88;25.30;;;;;;;3.62;100.00;99193.00;5056241;28;20107;-74
2024/03/09 01:21:03;;;;;;;31.70;15.35;;;;;;;3.53;100.00;99185.03;5072446;28;20156;-74
2024/03/09 01:23:30;;;;;;;44.55;22.25;;;;;;;3.50;100.00;99189.88;5039626;28;20032;-74
2024/03/09 01:25:57;;;;;;;47.97;25.67;;;;;;;3.45;100.00;99189.56;5056030;28;20016;-73
2024/03/09 01:28:22;;;;;;;49.72;27.60;;;;;;;3.60;100.00;99189.69;5039268;28;20070;-74
2024/03/09 01:30:48;;;;;;;36.50;18.33;;;;;;;3.55;100.00;99187.53;5039630;28;20111;-73
2024/03/09 01:33:14;;;;;;;44.33;25.55;;;;;;;3.57;100.00;99188.19;5039543;28;20475;-74
2024/03/09 01:35:39;;;;;;;42.17;25.98;;;;;;;3.63;100.00;99168.09;5056080;28;20514;-73
2024/03/09 01:38:05;;;;;;;42.58;23.85;;;;;;;3.63;100.00;99173.41;5039199;28;20036;-74
2024/03/09 01:40:31;;;;;;;43.72;21.23;;;;;;;3.67;100.00;99174.72;5055888;28;20068;-74
2024/03/09 01:42:57;;;;;;;50.67;28.58;;;;;;;3.59;100.00;99172.09;5039454;28;20028;-74
2024/03/09 01:45:23;;;;;;;38.72;20.00;;;;;;;3.52;100.00;99175.44;5043473;28;20032;-74
2024/03/09 01:47:52;;;;;;;47.00;26.05;;;;;;;3.56;100.00;99167.94;5079172;28;20027;-74
2024/03/09 01:50:19;;;;;;;31.40;15.45;;;;;;;3.44;100.00;99172.78;5045940;28;20071;-74
2024/03/09 01:52:49;;;;;;;49.47;32.35;;;;;;;3.52;100.00;99170.09;5062301;28;20108;-73
2024/03/09 01:55:18;;;;;;;43.25;19.60;;;;;;;3.47;100.00;99175.09;5079641;28;20047;-74
2024/03/09 01:57:46;;;;;;;48.45;29.33;;;;;;;3.35;100.00;99173.78;5062747;28;20024;-74
2024/03/09 02:00:14;;;;;;;51.08;26.08;;;;;;;3.22;100.00;99165.50;5062571;28;20027;-74
2024/03/09 02:02:40;;;;;;;52.20;26.08;;;;;;;3.08;100.00;99159.88;5062783;28;20024;-74
2024/03/09 02:05:10;;;;;;;35.33;16.77;;;;;;;3.09;100.00;99158.03;5045796;28;20039;-74
2024/03/09 02:07:37;;;;;;;47.47;24.70;;;;;;;3.14;100.00;99157.53;5046963;28;20035;-74
2024/03/09 02:10:03;;;;;;;42.45;19.80;;;;;;;3.01;100.00;99142.09;5045851;28;20035;-74
2024/03/09 02:12:29;;;;;;;40.38;18.48;;;;;;;2.96;100.00;99150.56;5045761;28;20029;-74
2024/03/09 02:14:54;;;;;;;33.50;17.67;;;;;;;2.94;100.00;99157.88;5062267;28;20024;-74
2024/03/09 02:17:22;;;;;;;44.85;20.35;;;;;;;2.99;100.00;99149.41;5045740;28;20027;-74
2024/03/09 02:19:48;;;;;;;34.38;17.55;;;;;;;2.94;100.00;99147.28;5078493;28;20013;-74
2024/03/09 02:22:17;;;;;;;42.88;21.40;;;;;;;3.01;100.00;99142.94;5045884;28;20072;-74
2024/03/09 02:24:52;;;;;;;28.05;14.45;;;;;;;3.13;100.00;99145.28;5045907;28;20350;-74
2024/03/09 02:27:20;;;;;;;41.55;23.33;;;;;;;3.18;100.00;99133.13;5046296;28;20032;-74
2024/03/09 02:29:47;;;;;;;43.63;22.95;;;;;;;3.24;100.00;99135.13;5062241;28;20486;-74
2024/03/09 02:32:13;;;;;;;53.45;28.05;;;;;;;3.27;100.00;99133.94;5045599;28;20055;-74
2024/03/09 02:34:39;;;;;;;47.85;22.13;;;;;;;3.29;100.00;99129.31;5045865;28;20056;-74
2024/03/09 02:37:04;;;;;;;48.00;20.45;;;;;;;3.20;100.00;99128.50;5045480;28;20063;-74
2024/03/09 02:39:30;;;;;;;39.42;17.95;;;;;;;3.08;100.00;99129.84;5061967;28;20032;-74
2024/03/09 02:41:58;;;;;;;31.90;15.30;;;;;;;3.01;100.00;99121.69;5062642;28;20058;-74
2024/03/09 02:44:26;;;;;;;46.17;20.65;;;;;;;3.15;100.00;99120.19;5062324;28;20036;-74
2024/03/09 02:46:52;;;;;;;47.53;21.55;;;;;;;3.16;100.00;99121.03;5062756;28;20044;-74
2024/03/09 02:49:19;;;;;;;39.13;19.75;;;;;;;3.09;100.00;99124.34;5045472;28;20082;-73
2024/03/09 02:51:46;;;;;;;57.65;28.58;;;;;;;3.04;100.00;99120.53;5078142;28;20024;-74
2024/03/09 02:54:14;;;;;;;48.78;21.85;;;;;;;3.04;100.00;99120.53;5078622;28;20029;-73
2024/03/09 02:56:40;;;;;;;50.70;24.83;;;;;;;2.99;100.00;99107.78;5042517;28;20347;-74
2024/03/09 02:59:06;;;;;;;52.15;23.15;;;;;;;3.00;100.00;99111.25;5042091;28;20079;-74
2024/03/09 03:01:32;;;;;;;45.78;21.73;;;;;;;2.91;100.00;99121.06;5042163;28;20040;-74
2024/03/09 03:04:02;;;;;;;62.85;30.75;;;;;;;3.00;100.00;99120.03;5042171;28;20081;-74
2024/03/09 03:06:28;;;;;;;38.42;17.83;;;;;;;3.00;100.00;99113.91;5043267;28;20051;-73
2024/03/09 03:08:59;;;;;;;58.88;28.67;;;;;;;3.02;100.00;99114.56;5058755;28;20032;-73
2024/03/09 03:11:25;;;;;;;40.80;19.90;;;;;;;2.97;100.00;99107.09;5058810;28;20033;-74
2024/03/09 03:13:51;;;;;;;51.60;24.40;;;;;;;2.99;100.00;99112.22;5041935;28;20463;-74
2024/03/09 03:16:29;;;;;;;42.58;23.25;;;;;;;3.07;100.00;99099.78;5041903;28;20483;-74
2024/03/09 03:18:56;;;;;;;44.75;23.05;;;;;;;3.25;100.00;99104.06;5059783;28;20033;-74
2024/03/09 03:21:21;;;;;;;32.95;16.67;;;;;;;3.22;100.00;99102.56;5041632;28;20532;-73
2024/03/09 03:23:50;;;;;;;53.60;24.27;;;;;;;3.37;100.00;99107.22;5041784;28;20033;-74
2024/03/09 03:26:16;;;;;;;47.60;30.13;;;;;;;3.46;100.00;99096.38;5042081;28;20024;-73
2024/03/09 03:28:44;;;;;;;43.13;20.75;;;;;;;3.63;100.00;99096.34;5057799;28;20028;-74
2024/03/09 03:31:10;;;;;;;50.72;24.15;;;;;;;3.66;100.00;99099.47;5074733;28;20109;-74
2024/03/09 03:33:39;;;;;;;44.60;23.63;;;;;;;3.74;100.00;99096.78;5074767;28;20142;-74
2024/03/09 03:36:24;;;;;;;43.67;25.27;;;;;;;3.81;100.00;99101.38;5041606;28;20106;-73
2024/03/09 03:38:50;;;;;;;41.83;23.80;;;;;;;3.87;100.00;99103.38;5041728;28;20024;-74
2024/03/09 03:41:18;;;;;;;41.80;21.63;;;;;;;3.94;100.00;99104.31;5041440;28;20358;-73
2024/03/09 03:43:44;;;;;;;39.08;20.48;;;;;;;4.11;100.00;99103.25;5041472;28;20040;-74
2024/03/09 03:46:14;;;;;;;44.97;23.35;;;;;;;4.06;100.00;99110.09;5057801;28;20017;-74
2024/03/09 03:48:40;;;;;;;42.38;26.63;;;;;;;4.08;100.00;99087.66;5057720;28;20107;-73
2024/03/09 03:51:12;;;;;;;41.15;20.98;;;;;;;4.07;100.00;99096.59;5074352;28;20070;-74
2024/03/09 03:53:39;;;;;;;39.78;21.70;;;;;;;4.01;100.00;99101.81;5074415;28;20082;-73
2024/03/09 03:56:07;;;;;;;38.17;19.00;;;;;;;4.02;100.00;99093.63;5058011;28;20391;-74
2024/03/09 03:58:37;;;;;;;37.30;18.80;;;;;;;3.98;100.00;99084.38;5041399;28;20463;-73
2024/03/09 04:01:03;;;;;;;40.28;18.63;;;;;;;3.96;100.00;99095.16;5058091;28;20032;-74
2024/03/09 04:03:31;;;;;;;44.50;23.70;;;;;;;3.97;100.00;99083.53;5041021;28;20089;-74
2024/03/09 04:05:59;;;;;;;11.70;8.30;;;;;;;3.89;100.00;99082.75;5058039;28;20035;-74
2024/03/09 04:08:24;;;;;;;42.63;27.60;;;;;;;3.97;100.00;99078.22;5057110;28;20471;-74
2024/03/09 04:10:51;;;;;;;34.88;18.70;;;;;;;4.03;100.00;99090.00;5040947;28;20054;-74
2024/03/09 04:13:20;;;;;;;35.30;21.48;;;;;;;4.04;100.00;99080.19;5057604;28;20115;-73
2024/03/09 04:15:45;;;;;;;24.65;12.90;;;;;;;3.99;100.00;99078.03;5041261;28;20094;-73
2024/03/09 04:18:13;;;;;;;30.20;13.85;;;;;;;3.95;100.00;99077.56;5057159;28;20020;-74
2024/03/09 04:20:40;;;;;;;32.85;18.35;;;;;;;3.96;100.00;99081.88;5057579;28;20037;-74
2024/03/09 04:23:15;;;;;;;35.47;16.02;;;;;;;4.04;100.00;99077.53;5057332;28;20086;-74
2024/03/09 04:25:44;;;;;;;34.60;17.65;;;;;;;3.93;100.00;99087.53;5042352;28;20458;-74
2024/03/09 04:28:20;;;;;;;20.50;12.05;;;;;;;3.91;100.00;99068.28;5057091;28;20123;-73
2024/03/09 04:30:48;;;;;;;22.90;10.40;;;;;;;3.86;100.00;99073.28;5041961;28;20048;-73
2024/03/09 04:33:15;;;;;;;31.10;18.65;;;;;;;3.87;100.00;99079.44;5040509;28;20115;-74
2024/03/09 04:35:42;;;;;;;33.35;15.85;;;;;;;3.86;100.00;99072.47;5056997;28;20028;-74
2024/03/09 04:38:08;;;;;;;31.85;14.85;;;;;;;3.76;100.00;99064.72;5039982;28;20339;-74
2024/03/09 04:40:37;;;;;;;27.73;17.85;;;;;;;3.84;100.00;99064.66;5056551;28;20032;-74
2024/03/09 04:43:04;;;;;;;29.17;10.40;;;;;;;3.89;100.00;99067.63;5040801;28;20028;-74
2024/03/09 04:45:31;;;;;;;25.38;14.93;;;;;;;3.89;100.00;99058.81;5040270;28;20032;-74
2024/03/09 04:48:00;;;;;;;33.28;20.73;;;;;;;3.97;100.00;99064.09;5040916;28;20051;-74
2024/03/09 04:50:28;;;;;;;25.05;12.70;;;;;;;4.00;100.00;99057.63;5057701;28;20059;-73
2024/03/09 04:52:57;;;;;;;19.08;11.20;;;;;;;4.09;100.00;99051.22;5057237;28;20028;-73
2024/03/09 04:55:29;;;;;;;28.67;16.40;;;;;;;4.13;100.00;99053.38;5056353;28;20025;-73
2024/03/09 04:57:58;;;;;;;22.40;11.80;;;;;;;4.15;100.00;99048.72;5040394;28;20123;-74
2024/03/09 05:00:28;;;;;;;28.20;12.75;;;;;;;4.09;100.00;99043.25;5056106;28;20021;-74
2024/03/09 05:02:54;;;;;;;30.30;15.90;;;;;;;4.00;100.00;99042.47;5040108;28;20048;-74
2024/03/09 05:05:20;;;;;;;33.92;18.88;;;;;;;3.92;100.00;99040.69;5039880;28;20412;-74
2024/03/09 05:07:50;;;;;;;31.33;19.27;;;;;;;3.79;100.00;99032.47;5039863;28;20024;-74
2024/03/09 05:10:18;;;;;;;33.13;22.13;;;;;;;3.72;100.00;99019.03;5056519;28;20021;-73
2024/03/09 05:12:48;;;;;;;38.58;22.33;;;;;;;3.62;100.00;99017.59;5056271;28;20043;-74
2024/03/09 05:15:14;;;;;;;36.38;19.58;;;;;;;3.49;100.00;99018.13;5056805;28;20119;-73
2024/03/09 05:17:39;;;;;;;29.77;16.00;;;;;;;3.42;100.00;99014.53;5040000;28;20024;-74
2024/03/09 05:20:11;;;;;;;37.03;24.52;;;;;;;3.36;100.00;99005.44;5038768;28;20028;-74
2024/03/09 05:22:38;;;;;;;31.98;20.98;;;;;;;3.39;100.00;99001.59;5056829;28;20074;-74
2024/03/09 05:25:10;;;;;;;32.03;20.65;;;;;;;3.42;100.00;99009.22;5039702;28;20119;-73
2024/03/09 05:27:42;;;;;;;45.72;27.13;;;;;;;3.45;100.00;99004.38;5073052;28;20443;-73
2024/03/09 05:30:19;;;;;;;39.95;28.65;;;;;;;3.59;100.00;98996.69;5056463;28;20043;-73
2024/03/09 05:32:53;;;;;;;38.20;27.92;;;;;;;3.64;100.00;99003.13;5055597;28;20063;-74
2024/03/09 05:35:23;;;;;;;35.47;17.33;;;;;;;3.66;100.00;99002.97;5041194;28;20032;-74
2024/03/09 05:37:52;;;;;;;42.97;25.08;;;;;;;3.63;100.00;99003.31;5056146;28;20340;-73
2024/03/09 05:40:18;;;;;;;36.30;22.45;;;;;;;3.67;100.00;98996.63;5039644;28;20028;-74
2024/03/09 05:42:45;;;;;;;41.78;30.60;;;;;;;3.70;100.00;98998.94;5039400;28;20032;-74
2024/03/09 05:45:23;;;;;;;35.15;20.50;;;;;;;3.77;100.00;99007.06;5039368;28;20032;-73
2024/03/09 05:47:50;;;;;;;40.80;23.33;;;;;;;3.81;100.00;99009.19;5040840;28;20052;-73
2024/03/09 05:50:17;;;;;;;36.03;21.00;;;;;;;3.85;100.00;99013.13;5055459;28;20024;-73
2024/03/09 05:52:44;;;;;;;33.47;18.92;;;;;;;3.85;100.00;99023.78;5039263;28;20028;-74
2024/03/09 05:55:12;;;;;;;33.80;16.48;;;;;;;3.87;100.00;99021.78;5039263;28;20433;-73
2024/03/09 05:57:42;;;;;;;35.70;19.77;;;;;;;3.89;100.00;99026.91;5039172;28;20036;-73
2024/03/09 06:00:09;;;;;;;36.08;18.75;;;;;;;3.94;100.00;99021.88;5039685;28;20371;-73
2024/03/09 06:02:39;;;;;;;28.02;17.17;;;;;;;3.96;100.00;99019.88;5039159;28;20025;-73
2024/03/09 06:05:07;;;;;;;39.70;20.75;;;;;;;3.94;100.00;99017.41;5072248;28;20090;-73
2024/03/09 06:07:40;;;;;;;36.70;19.80;;;;;;;3.94;100.00;99012.09;5039114;28;20420;-73
2024/03/09 06:10:13;;;;;;;41.67;24.70;;;;;;;3.96;100.00;99004.75;5039020;28;20031;-74
2024/03/09 06:12:49;;;;;;;;;;;;;;;4.00;100.00;99010.56;5041073;28;20097;-74
2024/03/09 06:15:16;;;;;;;34.17;17.20;;;;;;;4.01;100.00;99012.22;5055450;28;19904;-74
2024/03/09 06:17:44;;;;;;;26.13;14.93;;;;;;;4.04;100.00;99016.34;5072189;28;20060;-74
2024/03/09 06:20:11;;;;;;;38.78;22.13;;;;;;;4.06;100.00;99017.81;5038792;28;20059;-73
2024/03/09 06:22:37;;;;;;;40.55;21.60;;;;;;;4.08;100.00;99013.16;5055800;28;20082;-73
2024/03/09 06:25:04;;;;;;;46.50;20.02;;;;;;;4.09;100.00;99021.97;5039472;28;20105;-74
2024/03/09 06:27:29;;;;;;;22.80;13.05;;;;;;;4.07;100.00;99016.81;5038948;28;20123;-74
2024/03/09 06:29:56;;;;;;;36.33;20.52;;;;;;;4.07;100.00;99010.66;5038968;28;20043;-73
2024/03/09 06:32:28;;;;;;;32.25;15.90;;;;;;;4.08;100.00;99017.66;5042643;28;20035;-74
2024/03/09 06:34:54;;;;;;;39.17;18.42;;;;;;;4.08;100.00;99007.03;5042988;28;20378;-74
2024/03/09 06:37:20;;;;;;;33.85;18.85;;;;;;;4.07;100.00;99003.50;5059432;28;20135;-74
2024/03/09 06:39:48;;;;;;;30.92;16.70;;;;;;;4.06;100.00;99001.06;5059025;28;20028;-74
2024/03/09 06:42:14;;;;;;;37.88;21.90;;;;;;;4.10;100.00;99011.16;5042817;28;20127;-74
2024/03/09 06:44:39;;;;;;;44.72;22.85;;;;;;;4.09;100.00;99012.16;5042503;28;20068;-74
2024/03/09 06:47:06;;;;;;;43.70;21.73;;;;;;;4.12;100.00;99010.97;5042501;28;20032;-73
2024/03/09 06:49:35;;;;;;;39.63;18.05;;;;;;;4.13;100.00;99005.50;5042614;28;20075;-74
2024/03/09 06:52:04;;;;;;;37.55;16.60;;;;;;;4.16;100.00;99006.97;5075471;28;20028;-74
2024/03/09 06:54:31;;;;;;;37.70;18.98;;;;;;;4.19;100.00;99001.28;5058449;28;20028;-74
2024/03/09 06:56:57;;;;;;;47.38;26.10;;;;;;;4.23;100.00;98999.91;5058802;28;20032;-74
2024/03/09 06:59:23;;;;;;;41.80;22.95;;;;;;;4.26;100.00;98993.41;5075238;28;20055;-74
2024/03/09 07:01:57;;;;;;;45.15;23.17;;;;;;;4.29;100.00;98998.41;5058751;28;20392;-74
2024/03/09 07:04:25;;;;;;;43.33;22.33;;;;;;;4.32;100.00;98990.06;5059520;28;20042;-73
2024/03/09 07:06:56;;;;;;;50.15;29.23;;;;;;;4.41;100.00;98976.47;5042288;28;20479;-74
2024/03/09 07:09:23;;;;;;;41.80;19.80;;;;;;;4.47;100.00;98980.25;5042405;28;20451;-74
2024/03/09 07:11:52;;;;;;;57.50;35.00;;;;;;;4.48;100.00;98978.44;5075153;28;20032;-74
2024/03/09 07:14:21;;;;;;;47.10;28.80;;;;;;;4.50;100.00;98971.94;5074830;28;20029;-74
2024/03/09 07:16:47;;;;;;;55.78;31.77;;;;;;;4.57;100.00;98969.34;5058581;28;20052;-74
2024/03/09 07:19:16;;;;;;;50.78;28.27;;;;;;;4.61;100.00;98976.00;5058270;28;20020;-73
2024/03/09 07:21:42;;;;;;;56.55;33.85;;;;;;;4.67;100.00;98953.97;5041924;28;20421;-73
2024/03/09 07:24:08;;;;;;;58.22;31.65;;;;;;;4.68;100.00;98960.91;5042142;28;20032;-74
2024/03/09 07:26:35;;;;;;;67.93;39.25;;;;;;;4.73;100.00;98963.88;5057876;28;20467;-73
2024/03/09 07:29:02;;;;;;;58.33;34.63;;;;;;;4.76;100.00;98958.19;5041670;28;20077;-73
2024/03/09 07:31:27;;;;;;;53.42;31.23;;;;;;;4.80;100.00;98961.31;5040976;28;20040;-74
2024/03/09 07:33:56;;;;;;;52.72;27.50;;;;;;;4.82;100.00;98954.81;5041435;28;20036;-74
2024/03/09 07:36:22;;;;;;;58.85;34.17;;;;;;;4.88;100.00;98949.75;5041482;28;20036;-74
2024/03/09 07:38:50;;;;;;;58.70;34.83;;;;;;;4.90;100.00;98947.75;5041424;28;20028;-74
2024/03/09 07:41:17;;;;;;;58.75;37.45;;;;;;;4.90;100.00;98932.59;5041668;28;20024;-73
2024/03/09 07:43:46;;;;;;;51.28;30.15;;;;;;;4.95;100.00;98930.19;5057268;28;20029;-74
2024/03/09 07:46:11;;;;;;;47.00;28.08;;;;;;;5.04;100.00;98934.41;5041326;28;20043;-74
2024/03/09 07:48:38;;;;;;;59.40;35.47;;;;;;;5.07;100.00;98938.53;5058361;28;20036;-73
2024/03/09 07:51:04;;;;;;;57.85;42.05;;;;;;;5.09;100.00;98930.38;5057344;28;20028;-74
2024/03/09 07:53:29;;;;;;;56.90;39.50;;;;;;;5.15;100.00;98930.44;5041937;28;20047;-74
2024/03/09 07:55:57;;;;;;;57.35;41.58;;;;;;;5.22;100.00;98918.03;5057661;28;20446;-73
2024/03/09 07:58:23;;;;;;;50.38;35.88;;;;;;;5.28;100.00;98932.44;5041222;28;20121;-73
2024/03/09 08:00:49;;;;;;;55.90;37.38;;;;;;;5.30;100.00;98914.44;5040980;28;20158;-74
2024/03/09 08:03:15;;;;;;;60.38;37.58;;;;;;;5.36;100.00;98910.19;5057163;28;20021;-73
2024/03/09 08:05:41;;;;;;;66.38;48.35;;;;;;;5.42;100.00;98906.78;5040971;28;20028;-73
2024/03/09 08:08:09;;;;;;;56.17;34.88;;;;;;;5.50;100.00;98917.31;5057519;28;20027;-74
2024/03/09 08:10:39;;;;;;;55.38;36.47;;;;;;;5.53;100.00;98900.97;5041168;28;20040;-73
2024/03/09 08:13:04;;;;;;;56.92;38.72;;;;;;;5.56;100.00;98916.59;5057482;28;20035;-73
2024/03/09 08:15:32;;;;;;;62.92;45.92;;;;;;;5.51;100.00;98911.81;5040724;28;20028;-73
2024/03/09 08:17:58;;;;;;;53.20;24.75;;;;;;;5.48;100.00;98930.03;5040884;28;20036;-73
2024/03/09 08:20:24;;;;;;;50.40;28.17;;;;;;;5.45;100.00;98935.72;5040220;28;20024;-74
2024/03/09 08:22:50;;;;;;;52.95;30.42;;;;;;;5.45;100.00;98931.22;5057165;28;20028;-73
2024/03/09 08:25:17;;;;;;;47.90;30.27;;;;;;;5.50;100.00;98936.81;5040499;28;20147;-74
2024/03/09 08:27:44;;;;;;;50.30;26.05;;;;;;;5.56;100.00;98937.91;5040204;28;20429;-74
2024/03/09 08:30:15;;;;;;;57.20;37.58;;;;;;;5.53;100.00;98935.63;5056639;28;20057;-73
2024/03/09 08:32:44;;;;;;;58.78;40.95;;;;;;;5.50;100.00;98941.31;5073527;28;20060;-74
2024/03/09 08:35:20;;;;;;;60.75;41.60;;;;;;;5.55;100.00;98916.75;5057142;28;20116;-73
2024/03/09 08:37:47;;;;;;;47.72;27.63;;;;;;;5.64;100.00;98924.47;5056718;28;20467;-73
2024/03/09 08:40:17;;;;;;;54.38;32.55;;;;;;;5.77;100.00;98918.44;5056598;28;20032;-74
2024/03/09 08:42:53;;;;;;;66.78;39.05;;;;;;;5.80;100.00;98922.56;5073635;28;20036;-74
2024/03/09 08:45:22;;;;;;;59.67;34.53;;;;;;;5.78;100.00;98930.75;5040884;28;20032;-74
2024/03/09 08:47:52;;;;;;;63.08;39.80;;;;;;;5.75;100.00;98930.31;5056275;28;20028;-74
2024/03/09 08:50:18;;;;;;;46.00;28.20;;;;;;;5.77;100.00;98930.94;5073356;28;20056;-74
2024/03/09 08:52:45;;;;;;;37.03;20.13;;;;;;;5.81;100.00;98929.53;5073025;28;20086;-74
2024/03/09 08:55:11;;;;;;;44.60;23.30;;;;;;;5.84;100.00;98923.81;5039112;28;20327;-74
2024/03/09 08:57:43;;;;;;;56.67;29.70;;;;;;;5.78;100.00;98940.59;5056522;28;20394;-73
2024/03/09 09:00:09;;;;;;;46.95;28.60;;;;;;;5.78;100.00;98927.25;5056552;28;20112;-73
2024/03/09 09:02:38;;;;;;;66.00;41.83;;;;;;;5.73;100.00;98936.66;5056419;28;20530;-74
2024/03/09 09:05:11;;;;;;;54.03;29.90;;;;;;;5.76;100.00;98934.63;5039848;28;20370;-74
2024/03/09 09:07:40;;;;;;;51.83;29.35;;;;;;;5.79;100.00;98926.22;5057162;28;20036;-74
2024/03/09 09:10:11;;;;;;;61.38;36.22;;;;;;;5.78;100.00;98919.25;5072484;28;20124;-74
2024/03/09 09:12:43;;;;;;;56.40;35.13;;;;;;;5.82;100.00;98912.50;5056515;28;20343;-74
2024/03/09 09:15:10;;;;;;;56.40;33.97;;;;;;;5.85;100.00;98912.16;5039637;28;20029;-73
2024/03/09 09:17:36;;;;;;;53.50;28.30;;;;;;;5.88;100.00;98915.25;5072955;28;20070;-74
2024/03/09 09:20:03;;;;;;;56.42;33.40;;;;;;;5.93;100.00;98920.03;5039353;28;20028;-73
2024/03/09 09:22:29;;;;;;;57.42;34.58;;;;;;;5.93;100.00;98912.88;5056401;28;20040;-73
2024/03/09 09:24:56;;;;;;;55.47;29.73;;;;;;;5.97;100.00;98928.50;5039433;28;20062;-74
2024/03/09 09:27:25;;;;;;;60.28;36.03;;;;;;;5.93;100.00;98899.53;5072561;28;20024;-74
2024/03/09 09:29:50;;;;;;;59.05;34.88;;;;;;;5.81;100.00;98914.38;5056197;28;20081;-73
2024/03/09 09:32:17;;;;;;;46.22;24.55;;;;;;;5.73;100.00;98922.50;5056052;28;20028;-73
2024/03/09 09:34:43;;;;;;;49.83;27.98;;;;;;;5.70;100.00;98905.03;5056056;28;20355;-74
2024/03/09 09:37:12;;;;;;;58.13;30.90;;;;;;;5.73;100.00;98901.97;5039391;28;20459;-74
2024/03/09 09:39:42;;;;;;;57.92;37.13;;;;;;;5.80;100.00;98898.56;5055881;28;20029;-74
2024/03/09 09:42:12;;;;;;;44.15;26.92;;;;;;;5.91;100.00;98890.03;5056469;28;20086;-73
2024/03/09 09:44:40;;;;;;;52.58;34.10;;;;;;;6.15;100.00;98889.66;5055817;28;20543;-74
2024/03/09 09:47:05;;;;;;;56.63;37.30;;;;;;;6.42;100.00;98891.72;5055942;28;20099;-74
2024/03/09 09:49:32;;;;;;;57.15;34.78;;;;;;;6.55;100.00;98889.94;5038962;28;20528;-74
2024/03/09 09:51:59;;;;;;;51.80;27.42;;;;;;;6.54;100.00;98901.66;5055391;28;20024;-74
2024/03/09 09:54:26;;;;;;;57.22;31.73;;;;;;;6.52;100.00;98889.53;5055752;28;20047;-74
2024/03/09 09:56:56;;;;;;;44.38;28.20;;;;;;;6.36;100.00;98909.34;5055936;28;20032;-74
2024/03/09 09:59:26;;;;;;;44.53;27.92;;;;;;;6.19;100.00;98878.59;5055588;28;20032;-74
2024/03/09 10:01:52;;;;;;;56.08;31.98;;;;;;;6.17;100.00;98905.50;5039107;28;20031;-74
2024/03/09 10:04:18;;;;;;;49.88;29.50;;;;;;;6.19;100.00;98911.44;5055287;28;20021;-73
2024/03/09 10:06:44;;;;;;;53.15;29.63;;;;;;;6.19;100.00;98905.28;5058495;28;20047;-74
2024/03/09 10:09:13;;;;;;;48.15;23.80;;;;;;;6.26;100.00;98907.00;5043163;28;20024;-74
2024/03/09 10:11:38;;;;;;;44.38;24.25;;;;;;;6.22;100.00;98900.41;5044082;28;20032;-74
2024/03/09 10:14:05;;;;;;;60.00;32.78;;;;;;;6.21;100.00;98914.75;5043050;28;20417;-74
2024/03/09 10:16:32;;;;;;;50.33;25.52;;;;;;;6.18;100.00;98904.47;5043912;28;20024;-74
2024/03/09 10:19:02;;;;;;;43.72;24.15;;;;;;;6.18;100.00;98911.66;5059122;28;20031;-74
2024/03/09 10:21:38;;;;;;;46.63;28.38;;;;;;;6.22;100.00;98912.91;5043503;28;20044;-74
2024/03/09 10:24:07;;;;;;;58.28;40.47;;;;;;;6.26;100.00;98927.53;5075950;28;20021;-74
2024/03/09 10:26:34;;;;;;;50.03;27.85;;;;;;;6.37;100.00;98914.47;5043335;28;20064;-74
2024/03/09 10:29:01;;;;;;;56.05;33.05;;;;;;;6.43;100.00;98928.91;5042772;28;20411;-74
2024/03/09 10:31:27;;;;;;;46.92;27.17;;;;;;;6.43;100.00;98914.72;5042688;28;20111;-74
2024/03/09 10:33:56;;;;;;;57.50;36.15;;;;;;;6.41;100.00;98916.78;5059253;28;20036;-74
2024/03/09 10:36:23;;;;;;;54.20;33.25;;;;;;;6.37;100.00;98918.97;5042442;28;20064;-74
2024/03/09 10:38:51;;;;;;;49.55;29.65;;;;;;;6.37;100.00;98924.31;5058705;28;20028;-74
2024/03/09 10:41:25;;;;;;;56.47;32.22;;;;;;;6.30;100.00;98931.47;5042752;28;20039;-74
2024/03/09 10:43:52;;;;;;;42.45;23.40;;;;;;;6.32;100.00;98938.25;5059229;28;20135;-74
2024/03/09 10:46:22;;;;;;;48.90;25.92;;;;;;;6.34;100.00;98930.88;5042222;28;20370;-74
2024/03/09 10:48:51;;;;;;;59.72;31.08;;;;;;;6.35;100.00;98929.03;5059020;28;20525;-74
2024/03/09 10:51:35;;;;;;;41.33;19.52;;;;;;;6.35;100.00;98931.69;5075615;28;20083;-74
2024/03/09 10:54:34;;;;;;;50.83;31.65;;;;;;;6.41;100.00;98938.13;5058901;28;20028;-74
2024/03/09 10:57:02;;;;;;;52.00;25.08;;;;;;;6.51;100.00;98915.41;5042380;28;20139;-74
2024/03/09 10:59:30;;;;;;;47.05;22.55;;;;;;;6.57;100.00;98935.97;5075118;28;20021;-74
2024/03/09 11:01:56;;;;;;;44.15;19.85;;;;;;;6.63;100.00;98933.56;5025843;28;20037;-74
2024/03/09 11:04:24;;;;;;;47.35;33.38;;;;;;;6.58;100.00;98932.28;5042118;28;20085;-74
2024/03/09 11:06:50;;;;;;;36.38;21.77;;;;;;;6.51;100.00;98936.78;5059445;28;20043;-74
2024/03/09 11:09:18;;;;;;;51.38;30.92;;;;;;;6.57;100.00;98935.16;5058296;28;20103;-74
2024/03/09 11:11:45;;;;;;;50.30;24.58;;;;;;;6.71;100.00;98941.41;5058157;28;20416;-74
2024/03/09 11:14:16;;;;;;;55.53;27.88;;;;;;;6.75;100.00;98940.00;5041986;28;20090;-74
2024/03/09 11:16:42;;;;;;;37.75;16.48;;;;;;;6.81;100.00;98931.22;5074635;28;20090;-74
2024/03/09 11:19:13;;;;;;;39.20;23.52;;;;;;;6.70;100.00;98942.44;5057873;28;20343;-74